Alden, Alabama
Current Conditions -  °F | °C
As of 5:53 AM on Thursday 29 Jan 2015 (Local Time) from KBHM Reporting Station
Scattered Clouds Scattered Clouds  
Wind Chill: 41°   Ceiling: Unl
Heat Index: 46°   Visibility: 10mi
Dew Point: 32°   Wind: 10mph
Humidity: 58%   Direction: 170°S
Pressure: 30.26"   Gusts: NA
Location:  33.652°N, 86.9784°W
Report Text: KBHM 291153Z 17009KT 10SM SCT250 08/00 A3026 RMK AO2 SLP245 T00780000 10083 20033 50007
Loading
Personal Weather Stations






























Interactive Weather Map New forecast layout! Learn more

10-Day Weather Forecast

Advertisements
Track Severe Weather on mobile